sensor_id;sensor_type;location;lat;lon;timestamp;P1;durP1;ratioP1;P2;durP2;ratioP2
5682;SDS011;2864;49.220;8.654;2022-10-17T00:01:38;11.90;;;4.73;;
5682;SDS011;2864;49.220;8.654;2022-10-17T00:35:19;12.50;;;5.20;;
5682;SDS011;2864;49.220;8.654;2022-10-17T00:37:44;7.60;;;4.30;;
5682;SDS011;2864;49.220;8.654;2022-10-17T00:40:10;12.13;;;4.90;;
5682;SDS011;2864;49.220;8.654;2022-10-17T00:42:36;10.03;;;5.07;;
5682;SDS011;2864;49.220;8.654;2022-10-17T00:45:05;9.40;;;4.97;;
5682;SDS011;2864;49.220;8.654;2022-10-17T00:47:31;17.43;;;4.97;;
5682;SDS011;2864;49.220;8.654;2022-10-17T00:49:58;7.97;;;4.37;;
5682;SDS011;2864;49.220;8.654;2022-10-17T00:52:25;9.63;;;5.23;;
5682;SDS011;2864;49.220;8.654;2022-10-17T00:54:53;6.47;;;4.30;;
5682;SDS011;2864;49.220;8.654;2022-10-17T00:57:23;5.67;;;5.00;;
5682;SDS011;2864;49.220;8.654;2022-10-17T00:59:50;10.50;;;5.10;;
5682;SDS011;2864;49.220;8.654;2022-10-17T01:02:19;12.63;;;5.07;;
5682;SDS011;2864;49.220;8.654;2022-10-17T01:04:47;12.27;;;6.10;;
5682;SDS011;2864;49.220;8.654;2022-10-17T01:10:43;14.93;;;5.87;;
5682;SDS011;2864;49.220;8.654;2022-10-17T01:13:26;11.97;;;5.20;;
5682;SDS011;2864;49.220;8.654;2022-10-17T01:16:04;7.57;;;5.37;;
5682;SDS011;2864;49.220;8.654;2022-10-17T01:32:44;11.80;;;5.20;;
5682;SDS011;2864;49.220;8.654;2022-10-17T01:35:21;16.80;;;5.90;;
5682;SDS011;2864;49.220;8.654;2022-10-17T01:38:00;7.73;;;5.37;;
5682;SDS011;2864;49.220;8.654;2022-10-17T01:40:38;12.63;;;5.83;;
5682;SDS011;2864;49.220;8.654;2022-10-17T01:43:36;8.63;;;5.37;;
5682;SDS011;2864;49.220;8.654;2022-10-17T01:46:32;11.83;;;5.47;;
5682;SDS011;2864;49.220;8.654;2022-10-17T01:49:01;12.47;;;5.40;;
5682;SDS011;2864;49.220;8.654;2022-10-17T01:51:32;7.87;;;5.80;;
5682;SDS011;2864;49.220;8.654;2022-10-17T01:56:56;12.27;;;5.60;;
5682;SDS011;2864;49.220;8.654;2022-10-17T01:59:33;8.23;;;5.30;;
5682;SDS011;2864;49.220;8.654;2022-10-17T02:02:02;13.10;;;6.03;;
5682;SDS011;2864;49.220;8.654;2022-10-17T02:04:30;17.67;;;6.60;;
5682;SDS011;2864;49.220;8.654;2022-10-17T02:06:55;12.90;;;6.07;;
5682;SDS011;2864;49.220;8.654;2022-10-17T02:09:25;13.70;;;5.90;;
5682;SDS011;2864;49.220;8.654;2022-10-17T02:11:54;10.57;;;6.13;;
5682;SDS011;2864;49.220;8.654;2022-10-17T02:18:06;9.73;;;5.67;;
5682;SDS011;2864;49.220;8.654;2022-10-17T02:24:24;17.63;;;6.43;;
5682;SDS011;2864;49.220;8.654;2022-10-17T02:27:13;8.43;;;6.20;;
5682;SDS011;2864;49.220;8.654;2022-10-17T02:29:46;14.80;;;6.10;;
5682;SDS011;2864;49.220;8.654;2022-10-17T02:32:16;15.97;;;7.03;;
5682;SDS011;2864;49.220;8.654;2022-10-17T02:34:49;11.73;;;5.93;;
5682;SDS011;2864;49.220;8.654;2022-10-17T02:37:18;13.17;;;6.60;;
5682;SDS011;2864;49.220;8.654;2022-10-17T02:39:49;12.97;;;6.30;;
5682;SDS011;2864;49.220;8.654;2022-10-17T02:42:15;17.13;;;6.63;;
5682;SDS011;2864;49.220;8.654;2022-10-17T02:44:43;13.27;;;6.20;;
5682;SDS011;2864;49.220;8.654;2022-10-17T02:47:11;15.57;;;6.50;;
5682;SDS011;2864;49.220;8.654;2022-10-17T02:49:50;10.50;;;7.10;;
5682;SDS011;2864;49.220;8.654;2022-10-17T02:52:18;16.70;;;6.47;;
5682;SDS011;2864;49.220;8.654;2022-10-17T03:00:10;13.00;;;6.27;;
5682;SDS011;2864;49.220;8.654;2022-10-17T03:02:41;10.27;;;6.87;;
5682;SDS011;2864;49.220;8.654;2022-10-17T03:05:10;12.67;;;7.50;;
5682;SDS011;2864;49.220;8.654;2022-10-17T03:07:37;17.07;;;7.37;;
5682;SDS011;2864;49.220;8.654;2022-10-17T03:10:03;14.90;;;6.87;;
5682;SDS011;2864;49.220;8.654;2022-10-17T03:12:29;12.03;;;7.67;;
5682;SDS011;2864;49.220;8.654;2022-10-17T03:14:55;14.10;;;7.27;;
5682;SDS011;2864;49.220;8.654;2022-10-17T03:17:21;9.07;;;6.93;;
5682;SDS011;2864;49.220;8.654;2022-10-17T03:19:46;14.93;;;7.43;;
5682;SDS011;2864;49.220;8.654;2022-10-17T03:22:12;12.30;;;7.53;;
5682;SDS011;2864;49.220;8.654;2022-10-17T03:24:37;11.63;;;6.93;;
5682;SDS011;2864;49.220;8.654;2022-10-17T03:27:03;13.43;;;8.10;;
5682;SDS011;2864;49.220;8.654;2022-10-17T03:29:28;16.23;;;7.70;;
5682;SDS011;2864;49.220;8.654;2022-10-17T03:31:54;11.33;;;7.03;;
5682;SDS011;2864;49.220;8.654;2022-10-17T03:34:20;11.73;;;6.83;;
5682;SDS011;2864;49.220;8.654;2022-10-17T03:36:45;10.20;;;7.67;;
5682;SDS011;2864;49.220;8.654;2022-10-17T03:39:11;14.10;;;7.27;;
5682;SDS011;2864;49.220;8.654;2022-10-17T03:41:37;11.57;;;7.10;;
5682;SDS011;2864;49.220;8.654;2022-10-17T03:44:02;14.93;;;7.43;;
5682;SDS011;2864;49.220;8.654;2022-10-17T03:46:28;16.20;;;8.00;;
5682;SDS011;2864;49.220;8.654;2022-10-17T03:48:54;12.40;;;7.37;;
5682;SDS011;2864;49.220;8.654;2022-10-17T03:51:20;9.53;;;7.00;;
5682;SDS011;2864;49.220;8.654;2022-10-17T03:53:46;15.37;;;7.80;;
5682;SDS011;2864;49.220;8.654;2022-10-17T03:56:12;13.43;;;7.90;;
5682;SDS011;2864;49.220;8.654;2022-10-17T03:58:43;15.93;;;7.73;;
5682;SDS011;2864;49.220;8.654;2022-10-17T04:01:10;10.40;;;7.33;;
5682;SDS011;2864;49.220;8.654;2022-10-17T04:03:37;12.23;;;7.83;;
5682;SDS011;2864;49.220;8.654;2022-10-17T04:06:04;15.57;;;8.10;;
5682;SDS011;2864;49.220;8.654;2022-10-17T04:08:31;13.87;;;7.80;;
5682;SDS011;2864;49.220;8.654;2022-10-17T04:11:00;11.63;;;8.10;;
5682;SDS011;2864;49.220;8.654;2022-10-17T04:13:28;11.37;;;7.57;;
5682;SDS011;2864;49.220;8.654;2022-10-17T04:15:58;12.13;;;7.47;;
5682;SDS011;2864;49.220;8.654;2022-10-17T04:18:29;11.40;;;8.13;;
5682;SDS011;2864;49.220;8.654;2022-10-17T04:20:55;12.13;;;8.10;;
5682;SDS011;2864;49.220;8.654;2022-10-17T04:23:21;12.00;;;7.93;;
5682;SDS011;2864;49.220;8.654;2022-10-17T04:25:47;12.00;;;8.23;;
5682;SDS011;2864;49.220;8.654;2022-10-17T04:28:13;17.93;;;8.30;;
5682;SDS011;2864;49.220;8.654;2022-10-17T04:30:39;13.97;;;8.07;;
5682;SDS011;2864;49.220;8.654;2022-10-17T04:33:05;16.83;;;8.90;;
5682;SDS011;2864;49.220;8.654;2022-10-17T04:35:30;15.30;;;7.97;;
5682;SDS011;2864;49.220;8.654;2022-10-17T04:37:56;15.00;;;7.77;;
5682;SDS011;2864;49.220;8.654;2022-10-17T04:40:22;14.20;;;8.27;;
5682;SDS011;2864;49.220;8.654;2022-10-17T04:42:47;13.33;;;8.27;;
5682;SDS011;2864;49.220;8.654;2022-10-17T04:45:13;18.50;;;7.53;;
5682;SDS011;2864;49.220;8.654;2022-10-17T04:47:39;13.93;;;7.53;;
5682;SDS011;2864;49.220;8.654;2022-10-17T04:50:05;14.03;;;8.17;;
5682;SDS011;2864;49.220;8.654;2022-10-17T04:52:30;12.30;;;8.07;;
5682;SDS011;2864;49.220;8.654;2022-10-17T04:54:58;17.53;;;8.00;;
5682;SDS011;2864;49.220;8.654;2022-10-17T04:57:23;13.67;;;7.90;;
5682;SDS011;2864;49.220;8.654;2022-10-17T04:59:49;14.53;;;7.47;;
5682;SDS011;2864;49.220;8.654;2022-10-17T05:02:15;13.40;;;8.00;;
5682;SDS011;2864;49.220;8.654;2022-10-17T05:04:41;10.37;;;7.43;;
5682;SDS011;2864;49.220;8.654;2022-10-17T05:07:07;11.73;;;7.00;;
5682;SDS011;2864;49.220;8.654;2022-10-17T05:09:33;13.80;;;7.10;;
5682;SDS011;2864;49.220;8.654;2022-10-17T05:11:59;13.63;;;7.63;;
5682;SDS011;2864;49.220;8.654;2022-10-17T05:14:25;16.40;;;7.83;;
5682;SDS011;2864;49.220;8.654;2022-10-17T05:16:50;13.97;;;8.00;;
5682;SDS011;2864;49.220;8.654;2022-10-17T05:19:16;18.43;;;8.20;;
5682;SDS011;2864;49.220;8.654;2022-10-17T05:21:42;11.40;;;8.17;;
5682;SDS011;2864;49.220;8.654;2022-10-17T05:24:08;9.13;;;7.33;;
5682;SDS011;2864;49.220;8.654;2022-10-17T05:26:37;12.57;;;7.77;;
5682;SDS011;2864;49.220;8.654;2022-10-17T05:29:03;13.90;;;7.53;;
5682;SDS011;2864;49.220;8.654;2022-10-17T05:31:29;14.77;;;7.37;;
5682;SDS011;2864;49.220;8.654;2022-10-17T05:33:55;18.40;;;8.33;;
5682;SDS011;2864;49.220;8.654;2022-10-17T05:36:25;15.07;;;8.30;;
5682;SDS011;2864;49.220;8.654;2022-10-17T05:38:51;12.17;;;8.20;;
5682;SDS011;2864;49.220;8.654;2022-10-17T05:41:17;13.73;;;7.73;;
5682;SDS011;2864;49.220;8.654;2022-10-17T05:47:00;18.40;;;8.70;;
5682;SDS011;2864;49.220;8.654;2022-10-17T05:49:26;15.20;;;8.37;;
5682;SDS011;2864;49.220;8.654;2022-10-17T05:51:52;19.40;;;8.50;;
5682;SDS011;2864;49.220;8.654;2022-10-17T05:54:18;18.57;;;8.77;;
5682;SDS011;2864;49.220;8.654;2022-10-17T05:56:43;9.43;;;8.07;;
5682;SDS011;2864;49.220;8.654;2022-10-17T05:59:09;18.53;;;9.00;;
5682;SDS011;2864;49.220;8.654;2022-10-17T06:01:34;14.57;;;8.50;;
5682;SDS011;2864;49.220;8.654;2022-10-17T06:04:00;12.97;;;8.73;;
5682;SDS011;2864;49.220;8.654;2022-10-17T06:06:26;15.60;;;8.80;;
5682;SDS011;2864;49.220;8.654;2022-10-17T06:08:52;19.73;;;7.87;;
5682;SDS011;2864;49.220;8.654;2022-10-17T06:11:17;15.80;;;8.90;;
5682;SDS011;2864;49.220;8.654;2022-10-17T06:13:43;14.27;;;8.30;;
5682;SDS011;2864;49.220;8.654;2022-10-17T06:19:31;14.43;;;8.23;;
5682;SDS011;2864;49.220;8.654;2022-10-17T06:21:57;14.23;;;8.43;;
5682;SDS011;2864;49.220;8.654;2022-10-17T06:24:23;12.90;;;8.50;;
5682;SDS011;2864;49.220;8.654;2022-10-17T06:26:48;13.07;;;8.63;;
5682;SDS011;2864;49.220;8.654;2022-10-17T06:29:15;13.97;;;8.47;;
5682;SDS011;2864;49.220;8.654;2022-10-17T06:31:40;16.57;;;7.93;;
5682;SDS011;2864;49.220;8.654;2022-10-17T06:34:07;18.00;;;8.20;;
5682;SDS011;2864;49.220;8.654;2022-10-17T06:36:33;15.73;;;8.00;;
5682;SDS011;2864;49.220;8.654;2022-10-17T06:38:59;10.50;;;7.50;;
5682;SDS011;2864;49.220;8.654;2022-10-17T06:41:24;15.63;;;8.07;;
5682;SDS011;2864;49.220;8.654;2022-10-17T06:43:50;10.73;;;7.50;;
5682;SDS011;2864;49.220;8.654;2022-10-17T06:46:17;11.37;;;7.17;;
5682;SDS011;2864;49.220;8.654;2022-10-17T06:48:44;10.53;;;7.27;;
5682;SDS011;2864;49.220;8.654;2022-10-17T06:51:10;14.73;;;7.67;;
5682;SDS011;2864;49.220;8.654;2022-10-17T06:53:36;16.40;;;7.23;;
5682;SDS011;2864;49.220;8.654;2022-10-17T06:56:04;13.60;;;7.07;;
5682;SDS011;2864;49.220;8.654;2022-10-17T06:58:31;8.77;;;6.47;;
5682;SDS011;2864;49.220;8.654;2022-10-17T07:01:03;15.00;;;7.47;;
5682;SDS011;2864;49.220;8.654;2022-10-17T07:03:30;10.70;;;6.90;;
5682;SDS011;2864;49.220;8.654;2022-10-17T07:05:56;13.43;;;8.43;;
5682;SDS011;2864;49.220;8.654;2022-10-17T07:08:22;11.33;;;6.77;;
5682;SDS011;2864;49.220;8.654;2022-10-17T07:10:48;13.93;;;6.40;;
5682;SDS011;2864;49.220;8.654;2022-10-17T07:13:14;18.60;;;6.90;;
5682;SDS011;2864;49.220;8.654;2022-10-17T07:15:40;13.90;;;6.40;;
5682;SDS011;2864;49.220;8.654;2022-10-17T07:18:05;13.40;;;7.10;;
5682;SDS011;2864;49.220;8.654;2022-10-17T07:20:31;10.37;;;6.33;;
5682;SDS011;2864;49.220;8.654;2022-10-17T07:22:57;16.27;;;5.80;;
5682;SDS011;2864;49.220;8.654;2022-10-17T07:25:23;11.57;;;6.33;;
5682;SDS011;2864;49.220;8.654;2022-10-17T07:27:48;11.77;;;5.47;;
5682;SDS011;2864;49.220;8.654;2022-10-17T07:30:14;11.23;;;5.80;;
5682;SDS011;2864;49.220;8.654;2022-10-17T07:32:41;12.60;;;6.37;;
5682;SDS011;2864;49.220;8.654;2022-10-17T07:35:07;10.73;;;6.03;;
5682;SDS011;2864;49.220;8.654;2022-10-17T07:37:33;12.90;;;5.70;;
5682;SDS011;2864;49.220;8.654;2022-10-17T07:39:58;13.93;;;5.60;;
5682;SDS011;2864;49.220;8.654;2022-10-17T07:42:24;13.37;;;5.40;;
5682;SDS011;2864;49.220;8.654;2022-10-17T07:44:50;7.40;;;4.90;;
5682;SDS011;2864;49.220;8.654;2022-10-17T07:47:15;8.53;;;4.70;;
5682;SDS011;2864;49.220;8.654;2022-10-17T07:49:41;13.53;;;4.03;;
5682;SDS011;2864;49.220;8.654;2022-10-17T07:52:11;9.20;;;4.43;;
5682;SDS011;2864;49.220;8.654;2022-10-17T07:54:37;9.50;;;4.00;;
5682;SDS011;2864;49.220;8.654;2022-10-17T07:57:03;7.47;;;3.80;;
5682;SDS011;2864;49.220;8.654;2022-10-17T07:59:29;8.13;;;3.90;;
5682;SDS011;2864;49.220;8.654;2022-10-17T08:01:55;10.97;;;3.77;;
5682;SDS011;2864;49.220;8.654;2022-10-17T08:04:20;7.57;;;3.80;;
5682;SDS011;2864;49.220;8.654;2022-10-17T08:06:47;6.47;;;3.70;;
5682;SDS011;2864;49.220;8.654;2022-10-17T08:09:13;8.90;;;3.53;;
5682;SDS011;2864;49.220;8.654;2022-10-17T08:11:38;9.57;;;3.57;;
5682;SDS011;2864;49.220;8.654;2022-10-17T08:14:04;9.60;;;4.33;;
5682;SDS011;2864;49.220;8.654;2022-10-17T08:16:30;8.87;;;4.00;;
5682;SDS011;2864;49.220;8.654;2022-10-17T08:18:56;5.93;;;3.23;;
5682;SDS011;2864;49.220;8.654;2022-10-17T08:21:21;8.93;;;3.17;;
5682;SDS011;2864;49.220;8.654;2022-10-17T08:23:47;8.80;;;3.00;;
5682;SDS011;2864;49.220;8.654;2022-10-17T08:26:17;10.80;;;3.40;;
5682;SDS011;2864;49.220;8.654;2022-10-17T08:28:44;7.83;;;3.00;;
5682;SDS011;2864;49.220;8.654;2022-10-17T08:31:14;6.67;;;3.20;;
5682;SDS011;2864;49.220;8.654;2022-10-17T08:33:42;8.33;;;2.90;;
5682;SDS011;2864;49.220;8.654;2022-10-17T08:36:08;6.30;;;3.50;;
5682;SDS011;2864;49.220;8.654;2022-10-17T08:38:36;5.17;;;2.83;;
5682;SDS011;2864;49.220;8.654;2022-10-17T08:41:05;8.37;;;2.80;;
5682;SDS011;2864;49.220;8.654;2022-10-17T08:46:10;4.67;;;2.93;;
5682;SDS011;2864;49.220;8.654;2022-10-17T08:48:40;7.90;;;2.67;;
5682;SDS011;2864;49.220;8.654;2022-10-17T08:51:11;6.80;;;2.50;;
5682;SDS011;2864;49.220;8.654;2022-10-17T08:53:43;7.17;;;3.40;;
5682;SDS011;2864;49.220;8.654;2022-10-17T08:56:19;5.93;;;2.70;;
5682;SDS011;2864;49.220;8.654;2022-10-17T08:58:47;8.97;;;3.10;;
5682;SDS011;2864;49.220;8.654;2022-10-17T09:01:19;6.00;;;2.87;;
5682;SDS011;2864;49.220;8.654;2022-10-17T09:06:29;4.10;;;2.97;;
5682;SDS011;2864;49.220;8.654;2022-10-17T09:14:33;10.23;;;3.00;;
5682;SDS011;2864;49.220;8.654;2022-10-17T09:19:45;8.43;;;3.23;;
5682;SDS011;2864;49.220;8.654;2022-10-17T09:22:24;5.23;;;3.00;;
5682;SDS011;2864;49.220;8.654;2022-10-17T09:24:55;6.20;;;2.70;;
5682;SDS011;2864;49.220;8.654;2022-10-17T09:29:53;4.10;;;2.70;;
5682;SDS011;2864;49.220;8.654;2022-10-17T09:32:39;6.43;;;3.10;;
5682;SDS011;2864;49.220;8.654;2022-10-17T09:35:10;11.23;;;2.97;;
5682;SDS011;2864;49.220;8.654;2022-10-17T09:37:37;3.77;;;2.93;;
5682;SDS011;2864;49.220;8.654;2022-10-17T09:40:04;5.77;;;2.77;;
5682;SDS011;2864;49.220;8.654;2022-10-17T09:42:32;10.53;;;3.93;;
5682;SDS011;2864;49.220;8.654;2022-10-17T09:47:30;9.90;;;3.00;;
5682;SDS011;2864;49.220;8.654;2022-10-17T09:50:02;5.50;;;2.40;;
5682;SDS011;2864;49.220;8.654;2022-10-17T09:52:38;8.87;;;3.10;;
5682;SDS011;2864;49.220;8.654;2022-10-17T09:55:16;5.97;;;2.47;;
5682;SDS011;2864;49.220;8.654;2022-10-17T09:57:55;7.83;;;3.60;;
5682;SDS011;2864;49.220;8.654;2022-10-17T10:00:30;6.23;;;2.90;;
5682;SDS011;2864;49.220;8.654;2022-10-17T10:03:13;6.43;;;2.77;;
5682;SDS011;2864;49.220;8.654;2022-10-17T10:05:42;8.90;;;3.00;;
5682;SDS011;2864;49.220;8.654;2022-10-17T10:08:34;7.27;;;2.60;;
5682;SDS011;2864;49.220;8.654;2022-10-17T10:11:03;11.77;;;5.87;;
5682;SDS011;2864;49.220;8.654;2022-10-17T10:13:31;7.33;;;2.87;;
5682;SDS011;2864;49.220;8.654;2022-10-17T10:16:12;4.60;;;2.43;;
5682;SDS011;2864;49.220;8.654;2022-10-17T10:18:39;4.37;;;2.80;;
5682;SDS011;2864;49.220;8.654;2022-10-17T10:21:06;5.70;;;2.50;;
5682;SDS011;2864;49.220;8.654;2022-10-17T10:23:33;6.13;;;2.57;;
5682;SDS011;2864;49.220;8.654;2022-10-17T10:26:04;7.63;;;2.57;;
5682;SDS011;2864;49.220;8.654;2022-10-17T10:29:04;5.07;;;2.50;;
5682;SDS011;2864;49.220;8.654;2022-10-17T10:31:44;9.90;;;2.70;;
5682;SDS011;2864;49.220;8.654;2022-10-17T10:34:21;4.63;;;2.50;;
5682;SDS011;2864;49.220;8.654;2022-10-17T10:36:55;7.07;;;2.63;;
5682;SDS011;2864;49.220;8.654;2022-10-17T10:40:00;8.13;;;2.77;;
5682;SDS011;2864;49.220;8.654;2022-10-17T10:42:38;8.00;;;2.77;;
5682;SDS011;2864;49.220;8.654;2022-10-17T10:45:21;6.50;;;2.47;;
5682;SDS011;2864;49.220;8.654;2022-10-17T10:50:35;5.97;;;2.60;;
5682;SDS011;2864;49.220;8.654;2022-10-17T10:55:51;3.30;;;2.47;;
5682;SDS011;2864;49.220;8.654;2022-10-17T11:01:06;5.53;;;2.70;;
5682;SDS011;2864;49.220;8.654;2022-10-17T11:03:52;7.63;;;2.60;;
5682;SDS011;2864;49.220;8.654;2022-10-17T11:06:29;5.40;;;2.57;;
5682;SDS011;2864;49.220;8.654;2022-10-17T11:09:22;7.47;;;2.50;;
5682;SDS011;2864;49.220;8.654;2022-10-17T11:12:04;5.47;;;3.05;;
5682;SDS011;2864;49.220;8.654;2022-10-17T11:17:54;4.25;;;2.50;;
5682;SDS011;2864;49.220;8.654;2022-10-17T11:23:33;4.53;;;2.63;;
5682;SDS011;2864;49.220;8.654;2022-10-17T11:26:12;6.97;;;2.65;;
5682;SDS011;2864;49.220;8.654;2022-10-17T11:28:43;8.18;;;2.42;;
5682;SDS011;2864;49.220;8.654;2022-10-17T11:31:11;6.32;;;2.65;;
5682;SDS011;2864;49.220;8.654;2022-10-17T11:36:15;8.57;;;2.42;;
5682;SDS011;2864;49.220;8.654;2022-10-17T11:41:22;4.72;;;2.63;;
5682;SDS011;2864;49.220;8.654;2022-10-17T11:44:17;4.35;;;2.35;;
5682;SDS011;2864;49.220;8.654;2022-10-17T11:46:57;6.28;;;2.20;;
5682;SDS011;2864;49.220;8.654;2022-10-17T11:49:39;9.68;;;3.10;;
5682;SDS011;2864;49.220;8.654;2022-10-17T11:55:18;9.80;;;3.20;;
5682;SDS011;2864;49.220;8.654;2022-10-17T12:09:10;3.08;;;2.40;;
5682;SDS011;2864;49.220;8.654;2022-10-17T12:16:57;8.07;;;2.30;;
5682;SDS011;2864;49.220;8.654;2022-10-17T12:19:25;6.10;;;2.40;;
5682;SDS011;2864;49.220;8.654;2022-10-17T12:21:59;7.32;;;2.55;;
5682;SDS011;2864;49.220;8.654;2022-10-17T12:24:43;4.50;;;2.50;;
5682;SDS011;2864;49.220;8.654;2022-10-17T12:27:21;7.05;;;2.10;;
5682;SDS011;2864;49.220;8.654;2022-10-17T12:30:19;4.68;;;2.38;;
5682;SDS011;2864;49.220;8.654;2022-10-17T12:35:46;7.32;;;2.10;;
5682;SDS011;2864;49.220;8.654;2022-10-17T12:38:18;2.53;;;2.17;;
5682;SDS011;2864;49.220;8.654;2022-10-17T12:40:46;6.75;;;2.20;;
5682;SDS011;2864;49.220;8.654;2022-10-17T12:51:05;3.92;;;2.20;;
5682;SDS011;2864;49.220;8.654;2022-10-17T12:53:38;7.20;;;2.28;;
5682;SDS011;2864;49.220;8.654;2022-10-17T12:56:16;4.50;;;2.22;;
5682;SDS011;2864;49.220;8.654;2022-10-17T12:58:46;3.10;;;2.00;;
5682;SDS011;2864;49.220;8.654;2022-10-17T13:01:18;7.25;;;2.50;;
5682;SDS011;2864;49.220;8.654;2022-10-17T13:03:50;5.40;;;2.30;;
5682;SDS011;2864;49.220;8.654;2022-10-17T13:06:21;4.78;;;2.10;;
5682;SDS011;2864;49.220;8.654;2022-10-17T13:08:57;4.75;;;2.22;;
5682;SDS011;2864;49.220;8.654;2022-10-17T13:11:29;3.97;;;2.13;;
5682;SDS011;2864;49.220;8.654;2022-10-17T13:13:57;3.55;;;2.15;;
5682;SDS011;2864;49.220;8.654;2022-10-17T13:16:31;3.80;;;2.30;;
5682;SDS011;2864;49.220;8.654;2022-10-17T13:18:59;5.15;;;2.33;;
5682;SDS011;2864;49.220;8.654;2022-10-17T13:21:27;3.08;;;2.33;;
5682;SDS011;2864;49.220;8.654;2022-10-17T13:23:53;4.00;;;2.38;;
5682;SDS011;2864;49.220;8.654;2022-10-17T13:26:20;4.00;;;2.10;;
5682;SDS011;2864;49.220;8.654;2022-10-17T13:29:02;5.45;;;2.45;;
5682;SDS011;2864;49.220;8.654;2022-10-17T13:31:35;7.35;;;2.35;;
5682;SDS011;2864;49.220;8.654;2022-10-17T13:34:03;6.40;;;2.40;;
5682;SDS011;2864;49.220;8.654;2022-10-17T13:36:31;5.70;;;2.22;;
5682;SDS011;2864;49.220;8.654;2022-10-17T13:38:59;7.82;;;2.38;;
5682;SDS011;2864;49.220;8.654;2022-10-17T13:41:30;6.38;;;2.45;;
5682;SDS011;2864;49.220;8.654;2022-10-17T13:43:58;3.42;;;2.22;;
5682;SDS011;2864;49.220;8.654;2022-10-17T13:46:28;6.95;;;2.42;;
5682;SDS011;2864;49.220;8.654;2022-10-17T13:48:56;7.13;;;2.20;;
5682;SDS011;2864;49.220;8.654;2022-10-17T13:51:24;4.03;;;2.38;;
5682;SDS011;2864;49.220;8.654;2022-10-17T13:53:51;4.03;;;2.30;;
5682;SDS011;2864;49.220;8.654;2022-10-17T13:56:19;4.95;;;2.38;;
5682;SDS011;2864;49.220;8.654;2022-10-17T13:58:46;4.68;;;2.10;;
5682;SDS011;2864;49.220;8.654;2022-10-17T14:01:13;8.90;;;2.47;;
5682;SDS011;2864;49.220;8.654;2022-10-17T14:03:40;7.05;;;2.30;;
5682;SDS011;2864;49.220;8.654;2022-10-17T14:06:11;4.82;;;2.50;;
5682;SDS011;2864;49.220;8.654;2022-10-17T14:08:46;4.43;;;2.30;;
5682;SDS011;2864;49.220;8.654;2022-10-17T14:11:23;5.68;;;2.47;;
5682;SDS011;2864;49.220;8.654;2022-10-17T14:13:53;4.30;;;2.40;;
5682;SDS011;2864;49.220;8.654;2022-10-17T14:16:21;5.72;;;2.40;;
5682;SDS011;2864;49.220;8.654;2022-10-17T14:18:48;4.40;;;2.22;;
5682;SDS011;2864;49.220;8.654;2022-10-17T14:21:19;7.10;;;2.60;;
5682;SDS011;2864;49.220;8.654;2022-10-17T14:23:50;5.57;;;2.17;;
5682;SDS011;2864;49.220;8.654;2022-10-17T14:26:44;4.22;;;2.20;;
5682;SDS011;2864;49.220;8.654;2022-10-17T14:29:25;6.82;;;2.47;;
5682;SDS011;2864;49.220;8.654;2022-10-17T14:32:05;5.13;;;2.15;;
5682;SDS011;2864;49.220;8.654;2022-10-17T14:34:35;5.18;;;2.63;;
5682;SDS011;2864;49.220;8.654;2022-10-17T14:37:09;8.82;;;2.35;;
5682;SDS011;2864;49.220;8.654;2022-10-17T14:39:51;5.25;;;2.50;;
5682;SDS011;2864;49.220;8.654;2022-10-17T14:42:19;8.40;;;2.50;;
5682;SDS011;2864;49.220;8.654;2022-10-17T14:44:49;4.43;;;2.22;;
5682;SDS011;2864;49.220;8.654;2022-10-17T14:47:18;4.85;;;2.53;;
5682;SDS011;2864;49.220;8.654;2022-10-17T14:49:48;10.07;;;2.40;;
5682;SDS011;2864;49.220;8.654;2022-10-17T14:54:40;4.63;;;2.10;;
5682;SDS011;2864;49.220;8.654;2022-10-17T14:57:14;6.40;;;2.28;;
5682;SDS011;2864;49.220;8.654;2022-10-17T14:59:49;5.05;;;2.50;;
5682;SDS011;2864;49.220;8.654;2022-10-17T15:02:14;7.28;;;2.30;;
5682;SDS011;2864;49.220;8.654;2022-10-17T15:04:40;5.03;;;2.35;;
5682;SDS011;2864;49.220;8.654;2022-10-17T15:07:06;7.68;;;2.80;;
5682;SDS011;2864;49.220;8.654;2022-10-17T15:09:36;8.70;;;2.88;;
5682;SDS011;2864;49.220;8.654;2022-10-17T15:12:02;3.30;;;2.05;;
5682;SDS011;2864;49.220;8.654;2022-10-17T15:14:30;9.25;;;2.72;;
5682;SDS011;2864;49.220;8.654;2022-10-17T15:16:56;8.82;;;2.60;;
5682;SDS011;2864;49.220;8.654;2022-10-17T15:19:21;4.50;;;2.40;;
5682;SDS011;2864;49.220;8.654;2022-10-17T15:21:47;6.70;;;2.97;;
5682;SDS011;2864;49.220;8.654;2022-10-17T15:24:12;4.72;;;2.60;;
5682;SDS011;2864;49.220;8.654;2022-10-17T15:26:39;4.85;;;2.45;;
5682;SDS011;2864;49.220;8.654;2022-10-17T15:29:05;10.30;;;3.55;;
5682;SDS011;2864;49.220;8.654;2022-10-17T15:31:31;6.78;;;2.80;;
5682;SDS011;2864;49.220;8.654;2022-10-17T15:33:57;4.18;;;2.30;;
5682;SDS011;2864;49.220;8.654;2022-10-17T15:36:27;10.52;;;2.97;;
5682;SDS011;2864;49.220;8.654;2022-10-17T15:38:55;9.13;;;2.70;;
5682;SDS011;2864;49.220;8.654;2022-10-17T15:41:23;4.47;;;2.42;;
5682;SDS011;2864;49.220;8.654;2022-10-17T15:43:50;5.03;;;2.92;;
5682;SDS011;2864;49.220;8.654;2022-10-17T15:46:22;5.32;;;2.85;;
5682;SDS011;2864;49.220;8.654;2022-10-17T15:48:53;6.88;;;3.40;;
5682;SDS011;2864;49.220;8.654;2022-10-17T15:51:19;6.88;;;2.58;;
5682;SDS011;2864;49.220;8.654;2022-10-17T15:53:46;6.07;;;2.80;;
5682;SDS011;2864;49.220;8.654;2022-10-17T15:56:17;4.50;;;2.88;;
5682;SDS011;2864;49.220;8.654;2022-10-17T15:58:45;5.57;;;3.28;;
5682;SDS011;2864;49.220;8.654;2022-10-17T16:01:15;9.65;;;2.83;;
5682;SDS011;2864;49.220;8.654;2022-10-17T16:03:47;5.18;;;2.78;;
5682;SDS011;2864;49.220;8.654;2022-10-17T16:06:15;4.22;;;2.78;;
5682;SDS011;2864;49.220;8.654;2022-10-17T16:08:42;5.28;;;2.78;;
5682;SDS011;2864;49.220;8.654;2022-10-17T16:11:30;7.63;;;3.13;;
5682;SDS011;2864;49.220;8.654;2022-10-17T16:14:04;5.93;;;2.87;;
5682;SDS011;2864;49.220;8.654;2022-10-17T16:16:31;7.07;;;3.20;;
5682;SDS011;2864;49.220;8.654;2022-10-17T16:18:58;5.37;;;3.23;;
5682;SDS011;2864;49.220;8.654;2022-10-17T16:21:26;8.27;;;3.13;;
5682;SDS011;2864;49.220;8.654;2022-10-17T16:23:54;8.73;;;3.37;;
5682;SDS011;2864;49.220;8.654;2022-10-17T16:26:20;6.90;;;4.20;;
5682;SDS011;2864;49.220;8.654;2022-10-17T16:28:46;11.83;;;3.80;;
5682;SDS011;2864;49.220;8.654;2022-10-17T16:33:53;5.03;;;2.90;;
5682;SDS011;2864;49.220;8.654;2022-10-17T16:36:19;6.37;;;3.23;;
5682;SDS011;2864;49.220;8.654;2022-10-17T16:38:46;6.30;;;2.90;;
5682;SDS011;2864;49.220;8.654;2022-10-17T16:41:34;7.63;;;3.10;;
5682;SDS011;2864;49.220;8.654;2022-10-17T16:44:00;7.70;;;3.33;;
5682;SDS011;2864;49.220;8.654;2022-10-17T16:46:35;10.47;;;3.90;;
5682;SDS011;2864;49.220;8.654;2022-10-17T16:49:02;12.43;;;3.80;;
5682;SDS011;2864;49.220;8.654;2022-10-17T16:51:31;8.27;;;4.27;;
5682;SDS011;2864;49.220;8.654;2022-10-17T16:53:59;11.77;;;4.47;;
5682;SDS011;2864;49.220;8.654;2022-10-17T16:56:26;9.73;;;4.40;;
5682;SDS011;2864;49.220;8.654;2022-10-17T16:58:56;22.00;;;6.97;;
5682;SDS011;2864;49.220;8.654;2022-10-17T17:01:23;16.07;;;7.80;;
5682;SDS011;2864;49.220;8.654;2022-10-17T17:03:50;11.30;;;6.10;;
5682;SDS011;2864;49.220;8.654;2022-10-17T17:06:20;11.60;;;5.80;;
5682;SDS011;2864;49.220;8.654;2022-10-17T17:08:48;12.13;;;4.90;;
5682;SDS011;2864;49.220;8.654;2022-10-17T17:11:18;13.73;;;4.37;;
5682;SDS011;2864;49.220;8.654;2022-10-17T17:13:45;14.13;;;5.27;;
5682;SDS011;2864;49.220;8.654;2022-10-17T17:16:15;10.30;;;5.23;;
5682;SDS011;2864;49.220;8.654;2022-10-17T17:18:43;9.37;;;4.80;;
5682;SDS011;2864;49.220;8.654;2022-10-17T17:21:10;14.93;;;4.87;;
5682;SDS011;2864;49.220;8.654;2022-10-17T17:23:37;12.73;;;4.63;;
5682;SDS011;2864;49.220;8.654;2022-10-17T17:26:06;14.13;;;4.90;;
5682;SDS011;2864;49.220;8.654;2022-10-17T17:28:36;12.63;;;5.10;;
5682;SDS011;2864;49.220;8.654;2022-10-17T17:31:11;13.00;;;5.50;;
5682;SDS011;2864;49.220;8.654;2022-10-17T17:33:38;15.30;;;5.70;;
5682;SDS011;2864;49.220;8.654;2022-10-17T17:36:05;9.97;;;5.77;;
5682;SDS011;2864;49.220;8.654;2022-10-17T17:38:33;11.43;;;5.30;;
5682;SDS011;2864;49.220;8.654;2022-10-17T17:41:00;10.83;;;5.43;;
5682;SDS011;2864;49.220;8.654;2022-10-17T17:43:27;9.40;;;5.43;;
5682;SDS011;2864;49.220;8.654;2022-10-17T17:45:53;10.87;;;5.10;;
5682;SDS011;2864;49.220;8.654;2022-10-17T17:48:18;9.93;;;5.20;;
5682;SDS011;2864;49.220;8.654;2022-10-17T17:50:44;10.20;;;5.17;;